Ana Sayfa
METAR-TAF:

METAR-TAF

Havaalanları :

William H. Morse State Airport

Bennington, Vermont, Amerika Birleşik Devletleri

Enlem: 42-53-24N, Boylam: 073-14-47W, yükseklik: 252 m

Güncel hava durumu gözlemi

Rapor saat 04:54 UTC de 49 dakika önce yapıldı.
Rüzgar batı/kuzeybatıdan 7 kt
Sıcaklık 3°C
Nem 87%
Basınç 1004 hPa
Görüş mesafesi: 16.1 km
1800 ft yükseklikte çok bulutlu

METAR: KDDH 030454Z AUTO 30007KT 10SM OVC018 03/01 A2964 RMK AO2 SLP041 T00330011 400780022

Saat: 01:43 (05:43 UTC)


TAF: eksik

4.000'den fazla havaalanı için hava durumu gözlemleri ve tahminleri (METAR ve TAF raporları).

Kullanılabilir istasyonlar harita üzerinde sarı ve kırmızı noktalarla gösterilir.

İstasyonun adını görmek için fareyi noktanın üzerinde gezdirin.

Sonrasında hava gözlem ve tahminlerini görmek için tıklayın.

Haritayı değiştirmek için: yaklaştırmak için siyah artı işaretli yeşil düğmeye ve uzaklaştırmak için de eksi işaretli düğmeye hızla tıklayın; bitişik haritalar için yeşil okları kullanın.


METAR-TAF: